Terminal Aerodrome Forecast
Issued by NWS

Home | Current Version | Previous Version | Text Only | Print | Product List | Glossary On
Versions: 1 2 3 4 5 6 7 8 9 10 11 12 13 14 15 16 17
000
FTUS45 KTFX 022300
TAFHVR
TAF
KHVR 022335Z 0300/0324 22009KT P6SM FEW100 BKN200
     FM030800 25012KT P6SM SCT080 BKN120
     FM031400 28012G20KT P6SM VCSH SCT040 OVC080
     FM032000 31012G20KT P6SM VCSH SCT020 BKN040=

USA.gov is the U.S. government's official web portal to all federal, state and local government web resources and services.